createdAt,value
2019-01-21T00:03:25.930Z,99.9
2019-01-21T00:08:28.093Z,99.9
2019-01-21T00:13:30.552Z,99.9
2019-01-21T00:18:33.013Z,99.9
2019-01-21T00:23:35.470Z,99.9
2019-01-21T00:28:37.976Z,99.9
2019-01-21T00:33:40.468Z,99.9
2019-01-21T00:38:42.864Z,99.9
2019-01-21T00:43:45.307Z,99.9
2019-01-21T00:48:47.752Z,99.9
2019-01-21T00:53:50.220Z,99.9
2019-01-21T00:58:52.725Z,99.9
2019-01-21T01:03:55.165Z,99.9
2019-01-21T01:08:57.581Z,99.9
2019-01-21T01:14:00.057Z,99.9
2019-01-21T01:19:02.573Z,99.9
2019-01-21T01:24:04.985Z,99.9
2019-01-21T01:29:07.412Z,99.9
2019-01-21T01:34:09.861Z,99.9
2019-01-21T01:39:12.546Z,99.9
2019-01-21T01:44:14.827Z,99.9
2019-01-21T01:49:17.226Z,99.9
2019-01-21T01:54:19.699Z,99.9
2019-01-21T01:59:22.151Z,99.9
2019-01-21T02:04:24.621Z,99.9
2019-01-21T02:09:27.181Z,99.9
2019-01-21T02:14:29.542Z,99.9
2019-01-21T02:19:32.013Z,99.9
2019-01-21T02:24:34.435Z,99.9
2019-01-21T02:29:36.892Z,99.9
2019-01-21T02:34:39.346Z,99.9
2019-01-21T02:39:41.818Z,99.9
2019-01-21T02:44:44.271Z,99.9
2019-01-21T02:49:46.820Z,99.9
2019-01-21T02:54:49.424Z,99.9
2019-01-21T02:59:51.647Z,99.9
2019-01-21T03:04:54.236Z,99.9
2019-01-21T03:09:56.574Z,99.9
2019-01-21T03:14:59.025Z,99.9
2019-01-21T03:20:06.453Z,99.9
2019-01-21T03:25:03.977Z,99.9
2019-01-21T03:30:06.420Z,99.9
2019-01-21T03:35:08.850Z,99.9
2019-01-21T03:40:11.366Z,99.9
2019-01-21T03:45:13.793Z,99.9
2019-01-21T03:50:16.277Z,99.9
2019-01-21T03:55:18.664Z,99.9
2019-01-21T04:00:21.486Z,99.9
2019-01-21T04:05:23.925Z,99.9
2019-01-21T04:10:26.120Z,99.9
2019-01-21T04:15:28.490Z,99.9
2019-01-21T04:20:31.799Z,99.9
2019-01-21T04:25:33.402Z,99.9
2019-01-21T04:30:35.984Z,99.9
2019-01-21T04:35:38.326Z,99.9
2019-01-21T04:40:40.820Z,99.9
2019-01-21T04:45:43.261Z,99.9
2019-01-21T04:50:46.018Z,99.9
2019-01-21T04:55:48.142Z,99.9
2019-01-21T05:00:50.838Z,99.9
2019-01-21T05:05:53.065Z,99.9
2019-01-21T05:10:55.806Z,99.9
2019-01-21T05:15:57.989Z,99.9
2019-01-21T05:21:00.431Z,99.9
2019-01-21T05:26:02.917Z,99.9
2019-01-21T05:31:05.463Z,99.9
2019-01-21T05:36:07.865Z,99.9
2019-01-21T05:41:10.275Z,99.5
2019-01-21T05:46:17.805Z,99.6
2019-01-21T05:51:15.177Z,99.9
2019-01-21T05:56:17.674Z,99.9
2019-01-21T06:01:20.127Z,99.9
2019-01-21T06:06:22.540Z,99.9
2019-01-21T06:11:25.001Z,99.9
2019-01-21T06:16:27.479Z,97.6
2019-01-21T06:21:29.931Z,97.3
2019-01-21T06:26:32.407Z,95.7
2019-01-21T06:31:34.906Z,94
2019-01-21T06:36:37.320Z,96.7
2019-01-21T06:41:39.747Z,99.2
2019-01-21T06:46:42.205Z,98.2
2019-01-21T06:51:44.720Z,99.9
2019-01-21T06:56:47.505Z,97.9
2019-01-21T07:01:49.649Z,97.5
2019-01-21T07:11:54.485Z,93.3
2019-01-21T07:16:56.943Z,91.9
2019-01-21T07:21:59.430Z,95.3
2019-01-21T07:27:01.971Z,96.3
2019-01-21T07:32:04.304Z,98.1
2019-01-21T07:37:07.376Z,99.9
2019-01-21T07:42:09.311Z,99.9
2019-01-21T07:47:11.788Z,99.9
2019-01-21T07:52:14.183Z,99.9
2019-01-21T07:57:16.668Z,99.9
2019-01-21T08:02:19.107Z,99.9
2019-01-21T08:07:21.508Z,99.9
2019-01-21T08:12:23.999Z,99.9
2019-01-21T08:17:26.581Z,99.9
2019-01-21T08:22:28.903Z,99.9
2019-01-21T08:27:31.413Z,99.9
2019-01-21T08:32:33.862Z,96.3
2019-01-21T08:37:36.275Z,1
2019-01-21T08:42:38.756Z,1
2019-01-21T08:47:41.276Z,1
2019-01-21T08:52:43.650Z,1
2019-01-21T08:57:46.167Z,1
2019-01-21T09:02:48.601Z,1
2019-01-21T09:07:51.009Z,1
2019-01-21T09:17:56.015Z,1
2019-01-21T09:22:58.399Z,1
2019-01-21T09:28:00.867Z,1
2019-01-21T09:33:03.365Z,1
2019-01-21T09:38:05.788Z,1
2019-01-21T09:43:08.268Z,1
2019-01-21T09:48:10.666Z,1
2019-01-21T09:53:13.263Z,1
2019-01-21T09:58:15.663Z,1
2019-01-21T10:03:18.080Z,1
2019-01-21T10:08:20.510Z,1
2019-01-21T10:13:23.060Z,1
2019-01-21T10:18:25.498Z,1
2019-01-21T10:23:27.879Z,1
2019-01-21T10:33:34.101Z,1
2019-01-21T10:38:35.257Z,1
2019-01-21T10:43:37.708Z,1
2019-01-21T10:48:40.182Z,1
2019-01-21T10:53:42.757Z,1
2019-01-21T10:58:45.151Z,1
2019-01-21T11:03:47.651Z,1
2019-01-21T11:08:49.998Z,1
2019-01-21T11:13:52.535Z,1
2019-01-21T11:18:54.933Z,1
2019-01-21T11:23:57.401Z,1
2019-01-21T11:28:59.836Z,1
2019-01-21T11:34:02.318Z,1
2019-01-21T11:39:04.763Z,1
2019-01-21T11:44:07.244Z,1
2019-01-21T11:49:09.680Z,1
2019-01-21T11:54:12.135Z,1
2019-01-21T11:59:14.625Z,1
2019-01-21T12:04:17.063Z,1
2019-01-21T12:09:19.507Z,1
2019-01-21T12:14:21.965Z,1
2019-01-21T12:19:24.569Z,1
2019-01-21T12:24:26.883Z,1
2019-01-21T12:29:29.364Z,1
2019-01-21T12:34:31.794Z,1
2019-01-21T12:39:34.252Z,1
2019-01-21T12:44:36.731Z,1
2019-01-21T12:49:39.218Z,1
2019-01-21T12:54:41.915Z,1
2019-01-21T12:59:44.098Z,1
2019-01-21T13:04:46.554Z,1
2019-01-21T13:09:49.051Z,1
2019-01-21T13:14:51.492Z,1
2019-01-21T13:19:53.930Z,1
2019-01-21T13:24:56.376Z,1
2019-01-21T13:35:01.501Z,1
2019-01-21T13:40:03.765Z,1
2019-01-21T13:45:06.213Z,1
2019-01-21T13:50:08.693Z,1
2019-01-21T13:55:11.151Z,1
2019-01-21T14:00:13.647Z,1
2019-01-21T14:05:16.124Z,1
2019-01-21T14:10:18.525Z,1
2019-01-21T14:15:20.952Z,1
2019-01-21T14:20:23.426Z,1
2019-01-21T14:25:25.873Z,1
2019-01-21T14:30:28.342Z,1
2019-01-21T14:35:30.791Z,1
2019-01-21T14:40:33.267Z,1
2019-01-21T14:45:36.029Z,1
2019-01-21T14:50:38.146Z,1
2019-01-21T14:55:40.806Z,1
2019-01-21T15:00:43.103Z,1
2019-01-21T15:10:48.095Z,1
2019-01-21T15:15:50.519Z,1
2019-01-21T15:20:57.590Z,1
2019-01-21T15:25:55.407Z,1
2019-01-21T15:30:57.881Z,1
2019-01-21T15:36:00.474Z,1
2019-01-21T15:41:02.811Z,1
2019-01-21T15:46:05.327Z,1
2019-01-21T15:51:07.701Z,1
2019-01-21T15:56:10.977Z,1
2019-01-21T16:01:12.601Z,1
2019-01-21T16:06:15.061Z,1
2019-01-21T16:11:17.702Z,1
2019-01-21T16:16:19.958Z,1
2019-01-21T16:21:22.461Z,1
2019-01-21T16:26:24.875Z,1
2019-01-21T16:31:27.337Z,1
2019-01-21T16:36:29.782Z,1
2019-01-21T16:41:32.277Z,1
2019-01-21T16:46:34.732Z,1
2019-01-21T16:51:37.175Z,1
2019-01-21T16:56:39.684Z,1
2019-01-21T17:01:42.090Z,1
2019-01-21T17:06:44.537Z,1
2019-01-21T17:11:46.998Z,1
2019-01-21T17:16:49.464Z,1
2019-01-21T17:21:51.970Z,1
2019-01-21T17:26:54.671Z,1
2019-01-21T17:31:56.826Z,1
2019-01-21T17:36:59.255Z,1
2019-01-21T17:42:01.750Z,1
2019-01-21T17:47:04.202Z,1
2019-01-21T17:52:06.809Z,1
2019-01-21T17:57:09.087Z,1
2019-01-21T18:02:11.553Z,1
2019-01-21T18:07:14.021Z,1
2019-01-21T18:12:16.513Z,1
2019-01-21T18:17:18.941Z,1
2019-01-21T18:22:21.415Z,1
2019-01-21T18:27:23.879Z,1
2019-01-21T18:32:26.522Z,1
2019-01-21T18:37:28.750Z,1
2019-01-21T18:42:31.280Z,1
2019-01-21T18:47:33.659Z,1
2019-01-21T18:52:36.118Z,1
2019-01-21T18:57:38.603Z,1
2019-01-21T19:02:41.431Z,1
2019-01-21T19:07:43.529Z,1
2019-01-21T19:12:45.964Z,1
2019-01-21T19:17:48.404Z,1
2019-01-21T19:22:50.860Z,1
2019-01-21T19:27:53.347Z,1
2019-01-21T19:32:55.766Z,1
2019-01-21T19:37:58.306Z,1
2019-01-21T19:43:00.693Z,1
2019-01-21T19:48:03.146Z,1
2019-01-21T19:53:05.628Z,1
2019-01-21T19:58:08.074Z,1
2019-01-21T20:03:10.565Z,1
2019-01-21T20:08:13.039Z,1
2019-01-21T20:13:15.454Z,1
2019-01-21T20:18:17.906Z,1
2019-01-21T20:23:20.349Z,1
2019-01-21T20:28:22.803Z,1
2019-01-21T20:33:25.327Z,1
2019-01-21T20:38:27.713Z,1
2019-01-21T20:43:30.159Z,1
2019-01-21T20:48:32.646Z,1
2019-01-21T20:53:35.163Z,1
2019-01-21T20:58:37.573Z,1
2019-01-21T21:03:39.986Z,1
2019-01-21T21:08:42.461Z,1
2019-01-21T21:13:44.904Z,10.9
2019-01-21T21:18:47.444Z,41.7
2019-01-21T21:23:49.873Z,41.6
2019-01-21T21:28:52.360Z,55.6
2019-01-21T21:33:54.725Z,89.8
2019-01-21T21:38:57.181Z,99.9
2019-01-21T21:43:59.718Z,99.9
2019-01-21T21:49:02.107Z,99.9
2019-01-21T21:54:04.600Z,99.9
2019-01-21T21:59:07.023Z,97.9
2019-01-21T22:04:09.481Z,94.9
2019-01-21T22:09:11.923Z,93
2019-01-21T22:14:15.286Z,91.1
2019-01-21T22:19:16.865Z,87.6
2019-01-21T22:24:19.310Z,73.1
2019-01-21T22:29:21.759Z,66.2
2019-01-21T22:34:24.254Z,67.7
2019-01-21T22:39:26.674Z,65.2
2019-01-21T22:44:29.141Z,63.1
2019-01-21T22:49:31.604Z,71.5
2019-01-21T22:54:34.036Z,69.9
2019-01-21T23:04:38.950Z,64.5
2019-01-21T23:09:41.476Z,72.3
2019-01-21T23:14:43.866Z,66
2019-01-21T23:19:46.427Z,55.6
2019-01-21T23:24:48.941Z,69.8
2019-01-21T23:29:51.245Z,83.4
2019-01-21T23:34:53.723Z,71.9
2019-01-21T23:39:56.145Z,56.7
2019-01-21T23:44:58.609Z,55.2
2019-01-21T23:50:01.126Z,45.8
2019-01-21T23:55:03.538Z,17
